createdAt,value
2018-11-28T00:02:24.696Z,8.70
2018-11-28T00:08:33.037Z,7.37
2018-11-28T00:11:03.630Z,8.20
2018-11-28T00:13:35.025Z,7.40
2018-11-28T00:16:06.680Z,7.57
2018-11-28T00:18:37.280Z,6.37
2018-11-28T00:21:08.112Z,7.43
2018-11-28T00:23:38.887Z,8.13
2018-11-28T00:26:09.871Z,7.23
2018-11-28T00:28:40.672Z,7.00
2018-11-28T00:31:11.506Z,7.17
2018-11-28T00:33:42.858Z,7.40
2018-11-28T00:36:13.531Z,7.70
2018-11-28T00:38:44.091Z,7.17
2018-11-28T00:41:14.990Z,6.80
2018-11-28T00:43:45.435Z,6.83
2018-11-28T00:46:15.911Z,6.40
2018-11-28T00:48:46.511Z,7.43
2018-11-28T00:51:16.852Z,8.07
2018-11-28T00:53:47.910Z,8.03
2018-11-28T00:56:18.831Z,7.17
2018-11-28T00:58:49.448Z,7.37
2018-11-28T01:01:20.252Z,7.23
2018-11-28T01:03:51.630Z,6.83
2018-11-28T01:06:22.411Z,6.20
2018-11-28T01:08:53.510Z,7.10
2018-11-28T01:11:24.371Z,5.97
2018-11-28T01:13:55.870Z,8.13
2018-11-28T01:16:26.390Z,6.73
2018-11-28T01:18:57.169Z,6.47
2018-11-28T01:21:27.932Z,7.03
2018-11-28T01:23:59.311Z,7.47
2018-11-28T01:26:30.132Z,7.87
2018-11-28T01:29:00.810Z,7.30
2018-11-28T01:31:31.800Z,7.10
2018-11-28T01:34:02.931Z,6.93
2018-11-28T01:36:33.772Z,7.83
2018-11-28T01:39:04.911Z,8.20
2018-11-28T01:41:35.214Z,7.70
2018-11-28T01:44:05.907Z,7.60
2018-11-28T01:46:36.772Z,6.90
2018-11-28T01:49:08.093Z,6.50
2018-11-28T01:51:38.903Z,6.80
2018-11-28T01:54:09.891Z,6.67
2018-11-28T01:56:40.539Z,7.30
2018-11-28T01:59:11.151Z,8.03
2018-11-28T02:01:41.773Z,6.33
2018-11-28T02:04:12.172Z,7.97
2018-11-28T02:06:42.356Z,7.80
2018-11-28T02:09:12.890Z,7.67
2018-11-28T02:11:43.711Z,8.17
2018-11-28T02:14:14.550Z,7.10
2018-11-28T02:16:45.172Z,7.43
2018-11-28T02:19:15.571Z,7.93
2018-11-28T02:21:46.631Z,7.07
2018-11-28T02:24:18.191Z,7.23
2018-11-28T02:26:48.913Z,7.40
2018-11-28T02:29:19.252Z,7.97
2018-11-28T02:31:50.015Z,6.97
2018-11-28T02:34:21.198Z,6.43
2018-11-28T02:36:52.011Z,5.80
2018-11-28T02:39:22.831Z,5.10
2018-11-28T02:41:53.351Z,6.73
2018-11-28T02:44:25.272Z,5.63
2018-11-28T02:46:56.053Z,5.77
2018-11-28T02:49:26.951Z,5.90
2018-11-28T02:51:57.144Z,6.07
2018-11-28T02:54:27.712Z,5.50
2018-11-28T02:56:58.232Z,4.73
2018-11-28T03:03:06.068Z,5.50
2018-11-28T03:05:37.971Z,5.57
2018-11-28T03:08:09.851Z,4.73
2018-11-28T03:10:41.579Z,4.77
2018-11-28T03:13:12.584Z,5.87
2018-11-28T03:15:44.632Z,5.10
2018-11-28T03:18:15.313Z,5.43
2018-11-28T03:20:46.072Z,4.83
2018-11-28T03:23:17.252Z,5.10
2018-11-28T03:25:47.988Z,4.37
2018-11-28T03:28:19.132Z,5.47
2018-11-28T03:30:49.858Z,5.03
2018-11-28T03:33:20.915Z,5.43
2018-11-28T03:35:51.894Z,4.93
2018-11-28T03:38:23.312Z,5.07
2018-11-28T03:40:54.351Z,5.53
2018-11-28T03:43:25.152Z,6.20
2018-11-28T03:45:56.113Z,5.07
2018-11-28T03:48:26.886Z,4.80
2018-11-28T03:50:58.513Z,5.80
2018-11-28T03:53:29.651Z,5.00
2018-11-28T03:56:00.862Z,5.27
2018-11-28T03:58:31.933Z,5.33
2018-11-28T04:01:02.693Z,5.10
2018-11-28T04:03:33.874Z,4.47
2018-11-28T04:06:05.209Z,4.73
2018-11-28T04:08:36.531Z,5.03
2018-11-28T04:11:07.185Z,5.37
2018-11-28T04:13:38.332Z,6.10
2018-11-28T04:16:09.313Z,5.13
2018-11-28T04:18:39.952Z,5.30
2018-11-28T04:21:11.294Z,6.33
2018-11-28T04:23:42.515Z,5.80
2018-11-28T04:26:13.231Z,4.37
2018-11-28T04:28:44.473Z,4.93
2018-11-28T04:31:15.118Z,5.23
2018-11-28T04:33:45.492Z,4.57
2018-11-28T04:36:15.972Z,4.97
2018-11-28T04:38:46.373Z,4.43
2018-11-28T04:41:17.162Z,4.93
2018-11-28T04:43:47.551Z,5.07
2018-11-28T04:46:18.274Z,6.43
2018-11-28T04:48:49.532Z,5.47
2018-11-28T04:51:20.393Z,5.33
2018-11-28T04:53:51.592Z,5.17
2018-11-28T04:56:22.185Z,5.37
2018-11-28T04:58:52.475Z,5.30
2018-11-28T05:01:22.811Z,4.83
2018-11-28T05:03:53.489Z,5.67
2018-11-28T05:07:30.903Z,5.13
2018-11-28T05:10:01.852Z,5.20
2018-11-28T05:12:33.231Z,6.00
2018-11-28T05:15:03.872Z,4.97
2018-11-28T05:17:34.917Z,6.30
2018-11-28T05:20:07.932Z,4.90
2018-11-28T05:22:38.714Z,5.17
2018-11-28T05:25:13.020Z,5.47
2018-11-28T05:27:44.219Z,6.10
2018-11-28T05:30:30.148Z,11.47
2018-11-28T05:33:01.552Z,6.60
2018-11-28T05:35:37.212Z,8.60
2018-11-28T05:38:10.494Z,6.60
2018-11-28T05:40:41.931Z,6.20
2018-11-28T05:43:12.292Z,5.60
2018-11-28T05:45:51.651Z,6.17
2018-11-28T05:48:22.092Z,5.00
2018-11-28T05:50:53.152Z,6.90
2018-11-28T05:53:23.721Z,5.93
2018-11-28T05:55:54.772Z,6.37
2018-11-28T05:58:25.692Z,5.97
2018-11-28T06:00:57.236Z,5.43
2018-11-28T06:03:27.492Z,6.07
2018-11-28T06:05:58.472Z,5.87
2018-11-28T06:08:28.854Z,5.43
2018-11-28T06:11:00.033Z,5.10
2018-11-28T06:13:30.765Z,5.03
2018-11-28T06:16:01.966Z,5.23
2018-11-28T06:18:32.696Z,6.03
2018-11-28T06:21:03.380Z,5.73
2018-11-28T06:23:33.885Z,4.87
2018-11-28T06:26:04.291Z,5.00
2018-11-28T06:28:34.570Z,6.73
2018-11-28T06:31:05.869Z,6.20
2018-11-28T06:33:36.272Z,5.93
2018-11-28T06:36:06.912Z,4.87
2018-11-28T06:38:36.990Z,5.40
2018-11-28T06:41:08.480Z,5.67
2018-11-28T06:43:39.092Z,6.40
2018-11-28T06:46:09.786Z,6.90
2018-11-28T06:48:39.990Z,6.50
2018-11-28T06:51:10.320Z,5.17
2018-11-28T06:53:40.834Z,5.87
2018-11-28T06:56:12.141Z,6.33
2018-11-28T06:58:43.347Z,5.37
2018-11-28T07:01:13.806Z,6.03
2018-11-28T07:03:44.051Z,6.97
2018-11-28T07:06:14.590Z,6.57
2018-11-28T07:08:44.912Z,6.17
2018-11-28T07:11:15.212Z,6.43
2018-11-28T07:13:45.531Z,5.30
2018-11-28T07:16:16.035Z,6.80
2018-11-28T07:18:57.655Z,5.27
2018-11-28T07:21:28.195Z,6.40
2018-11-28T07:23:58.683Z,6.63
2018-11-28T07:26:28.879Z,6.20
2018-11-28T07:28:59.297Z,5.03
2018-11-28T07:31:29.532Z,5.50
2018-11-28T07:33:59.890Z,5.33
2018-11-28T07:36:30.245Z,5.03
2018-11-28T07:39:01.225Z,4.50
2018-11-28T07:41:32.311Z,5.83
2018-11-28T07:44:02.801Z,5.53
2018-11-28T07:46:33.598Z,5.90
2018-11-28T07:49:04.791Z,5.73
2018-11-28T07:51:35.752Z,4.67
2018-11-28T07:54:06.835Z,5.33
2018-11-28T07:56:37.492Z,5.60
2018-11-28T07:59:08.212Z,5.10
2018-11-28T08:01:39.245Z,4.93
2018-11-28T08:04:10.474Z,5.80
2018-11-28T08:06:41.553Z,4.83
2018-11-28T08:09:12.912Z,5.73
2018-11-28T08:11:43.752Z,4.60
2018-11-28T08:14:14.812Z,5.00
2018-11-28T08:16:45.599Z,4.43
2018-11-28T08:19:15.876Z,5.07
2018-11-28T08:21:46.083Z,4.73
2018-11-28T08:24:16.398Z,5.33
2018-11-28T08:26:47.362Z,5.57
2018-11-28T08:29:18.053Z,5.80
2018-11-28T08:31:48.232Z,5.17
2018-11-28T08:34:18.772Z,5.77
2018-11-28T08:36:49.252Z,6.03
2018-11-28T08:39:19.732Z,4.43
2018-11-28T08:41:50.665Z,4.50
2018-11-28T08:44:21.178Z,5.43
2018-11-28T08:46:51.307Z,5.63
2018-11-28T08:49:21.363Z,4.20
2018-11-28T08:51:51.852Z,4.43
2018-11-28T08:54:22.095Z,5.43
2018-11-28T08:56:52.447Z,4.40
2018-11-28T08:59:23.081Z,4.43
2018-11-28T09:01:53.588Z,5.53
2018-11-28T09:04:24.409Z,4.27
2018-11-28T09:06:54.599Z,4.80
2018-11-28T09:09:24.759Z,5.10
2018-11-28T09:11:54.868Z,5.30
2018-11-28T09:14:24.994Z,4.77
2018-11-28T09:16:55.412Z,4.30
2018-11-28T09:19:25.586Z,4.97
2018-11-28T09:21:56.192Z,4.47
2018-11-28T09:24:26.311Z,4.80
2018-11-28T09:26:56.446Z,3.57
2018-11-28T09:29:26.690Z,4.07
2018-11-28T09:31:56.859Z,3.20
2018-11-28T09:34:27.299Z,4.20
2018-11-28T09:36:57.493Z,4.70
2018-11-28T09:39:27.741Z,4.03
2018-11-28T09:41:58.067Z,3.73
2018-11-28T09:44:29.605Z,3.53
2018-11-28T09:47:00.253Z,3.50
2018-11-28T09:49:30.792Z,5.13
2018-11-28T09:52:01.401Z,4.73
2018-11-28T09:54:32.731Z,4.17
2018-11-28T09:57:03.442Z,4.20
2018-11-28T09:59:33.826Z,3.57
2018-11-28T10:02:04.323Z,3.73
2018-11-28T10:04:35.425Z,3.17
2018-11-28T10:07:06.192Z,4.37
2018-11-28T10:09:36.431Z,3.87
2018-11-28T10:12:07.303Z,4.97
2018-11-28T10:14:37.630Z,3.93
2018-11-28T10:17:07.789Z,5.10
2018-11-28T10:19:38.310Z,4.20
2018-11-28T10:22:09.451Z,4.37
2018-11-28T10:24:39.743Z,4.50
2018-11-28T10:27:10.145Z,4.67
2018-11-28T10:29:40.286Z,4.70
2018-11-28T10:32:10.432Z,4.73
2018-11-28T10:34:40.863Z,4.50
2018-11-28T10:37:11.296Z,4.10
2018-11-28T10:39:41.528Z,4.33
2018-11-28T10:42:11.749Z,4.97
2018-11-28T10:44:42.301Z,5.07
2018-11-28T10:47:12.347Z,4.93
2018-11-28T10:49:42.468Z,5.40
2018-11-28T10:52:12.827Z,4.47
2018-11-28T10:54:43.757Z,5.00
2018-11-28T10:57:14.348Z,4.27
2018-11-28T10:59:45.045Z,4.53
2018-11-28T11:02:21.148Z,5.30
2018-11-28T11:05:54.940Z,5.53
2018-11-28T11:08:28.112Z,7.27
2018-11-28T11:11:04.017Z,12.77
2018-11-28T11:13:39.694Z,7.43
2018-11-28T11:16:10.434Z,5.57
2018-11-28T11:18:40.794Z,4.87
2018-11-28T11:21:11.357Z,4.80
2018-11-28T11:23:41.790Z,5.90
2018-11-28T11:26:13.002Z,6.97
2018-11-28T11:28:43.693Z,6.10
2018-11-28T11:31:13.993Z,6.03
2018-11-28T11:33:44.692Z,8.23
2018-11-28T11:36:15.074Z,7.23
2018-11-28T11:38:45.513Z,5.50
2018-11-28T11:41:15.914Z,4.83
2018-11-28T11:43:46.508Z,5.13
2018-11-28T11:46:16.574Z,5.57
2018-11-28T11:48:47.339Z,4.50
2018-11-28T11:51:17.674Z,5.00
2018-11-28T11:53:48.553Z,6.37
2018-11-28T11:56:19.155Z,5.40
2018-11-28T11:58:49.453Z,5.90
2018-11-28T12:01:19.922Z,5.63
2018-11-28T12:03:51.194Z,5.57
2018-11-28T12:06:21.473Z,7.33
2018-11-28T12:08:51.634Z,7.40
2018-11-28T12:11:22.173Z,5.47
2018-11-28T12:13:52.920Z,7.03
2018-11-28T12:16:23.342Z,5.87
2018-11-28T12:18:54.114Z,5.87
2018-11-28T12:21:25.131Z,7.77
2018-11-28T12:23:55.373Z,6.17
2018-11-28T12:26:25.570Z,5.53
2018-11-28T12:28:55.933Z,4.93
2018-11-28T12:31:26.493Z,6.70
2018-11-28T12:33:56.920Z,6.07
2018-11-28T12:36:27.394Z,7.37
2018-11-28T12:38:57.774Z,9.90
2018-11-28T12:41:28.154Z,8.10
2018-11-28T12:43:58.619Z,6.33
2018-11-28T12:46:28.935Z,5.80
2018-11-28T12:48:59.494Z,7.63
2018-11-28T12:51:29.853Z,5.50
2018-11-28T12:54:00.155Z,11.10
2018-11-28T12:56:30.830Z,6.33
2018-11-28T12:59:01.081Z,9.30
2018-11-28T13:01:31.574Z,6.73
2018-11-28T13:04:02.261Z,6.07
2018-11-28T13:06:32.713Z,8.03
2018-11-28T13:09:03.212Z,7.33
2018-11-28T13:11:33.834Z,10.57
2018-11-28T13:14:04.194Z,9.30
2018-11-28T13:16:34.554Z,6.87
2018-11-28T13:19:04.934Z,10.77
2018-11-28T13:21:35.414Z,10.50
2018-11-28T13:24:06.417Z,10.70
2018-11-28T13:26:36.834Z,7.70
2018-11-28T13:29:07.616Z,7.27
2018-11-28T13:31:38.875Z,8.90
2018-11-28T13:34:09.429Z,7.87
2018-11-28T13:36:40.191Z,7.77
2018-11-28T13:39:10.932Z,8.73
2018-11-28T13:41:41.465Z,6.53
2018-11-28T13:44:12.213Z,6.07
2018-11-28T13:46:42.559Z,7.00
2018-11-28T13:49:12.926Z,8.83
2018-11-28T13:51:43.433Z,7.53
2018-11-28T13:54:21.312Z,7.03
2018-11-28T13:57:04.681Z,7.37
2018-11-28T13:59:17.133Z,6.23
2018-11-28T14:01:47.781Z,5.33
2018-11-28T14:04:18.536Z,6.47
2018-11-28T14:06:48.801Z,7.10
2018-11-28T14:09:19.636Z,6.07
2018-11-28T14:11:50.273Z,6.17
2018-11-28T14:14:20.836Z,5.37
2018-11-28T14:16:51.793Z,5.43
2018-11-28T14:19:22.627Z,4.97
2018-11-28T14:21:52.993Z,4.73
2018-11-28T14:24:23.633Z,4.47
2018-11-28T14:26:54.153Z,5.27
2018-11-28T14:29:25.734Z,6.03
2018-11-28T14:31:56.236Z,5.30
2018-11-28T14:34:27.280Z,5.60
2018-11-28T14:36:58.733Z,5.37
2018-11-28T14:39:28.953Z,6.20
2018-11-28T14:41:59.304Z,5.47
2018-11-28T14:44:30.220Z,5.13
2018-11-28T14:47:01.825Z,4.97
2018-11-28T14:49:32.114Z,5.33
2018-11-28T14:52:02.434Z,4.83
2018-11-28T14:54:33.179Z,5.40
2018-11-28T14:57:03.207Z,5.73
2018-11-28T14:59:34.024Z,4.90
2018-11-28T15:02:04.868Z,5.37
2018-11-28T15:04:35.513Z,5.07
2018-11-28T15:07:06.313Z,4.80
2018-11-28T15:09:42.719Z,5.20
2018-11-28T15:12:14.536Z,5.10
2018-11-28T15:14:45.633Z,6.00
2018-11-28T15:17:16.312Z,5.50
2018-11-28T15:19:47.037Z,6.53
2018-11-28T15:22:17.902Z,5.30
2018-11-28T15:24:48.593Z,3.77
2018-11-28T15:27:19.253Z,5.37
2018-11-28T15:29:50.373Z,6.10
2018-11-28T15:32:21.373Z,6.75
2018-11-28T15:34:52.344Z,6.43
2018-11-28T15:37:23.392Z,5.50
2018-11-28T15:39:56.020Z,5.37
2018-11-28T15:42:25.574Z,5.70
2018-11-28T15:44:56.934Z,5.37
2018-11-28T15:47:28.353Z,5.63
2018-11-28T15:49:59.075Z,5.33
2018-11-28T15:52:29.333Z,6.20
2018-11-28T15:55:00.455Z,6.43
2018-11-28T15:57:31.193Z,4.93
2018-11-28T16:00:02.016Z,5.30
2018-11-28T16:02:33.213Z,4.67
2018-11-28T16:05:03.953Z,4.73
2018-11-28T16:07:34.399Z,5.57
2018-11-28T16:10:12.376Z,4.80
2018-11-28T16:12:43.770Z,5.17
2018-11-28T16:15:16.375Z,7.37
2018-11-28T16:17:47.153Z,6.77
2018-11-28T16:20:17.496Z,8.40
2018-11-28T16:22:49.273Z,6.33
2018-11-28T16:25:20.551Z,6.27
2018-11-28T16:27:51.567Z,7.10
2018-11-28T16:30:22.893Z,5.93
2018-11-28T16:32:54.023Z,6.27
2018-11-28T16:35:24.413Z,5.27
2018-11-28T16:37:54.933Z,4.93
2018-11-28T16:40:25.534Z,5.27
2018-11-28T16:42:56.913Z,5.80
2018-11-28T16:45:27.452Z,5.97
2018-11-28T16:47:58.352Z,6.37
2018-11-28T16:50:28.976Z,7.30
2018-11-28T16:52:59.152Z,7.27
2018-11-28T16:55:29.479Z,6.70
2018-11-28T16:58:00.562Z,6.77
2018-11-28T17:00:32.582Z,7.60
2018-11-28T17:03:03.437Z,7.97
2018-11-28T17:05:34.253Z,9.20
2018-11-28T17:08:05.318Z,15.63
2018-11-28T17:10:37.053Z,14.57
2018-11-28T17:13:09.372Z,7.87
2018-11-28T17:15:41.582Z,13.90
2018-11-28T17:18:12.553Z,13.53
2018-11-28T17:20:43.394Z,12.40
2018-11-28T17:23:13.939Z,10.27
2018-11-28T17:25:44.094Z,6.97
2018-11-28T17:28:15.533Z,6.57
2018-11-28T17:30:45.972Z,10.40
2018-11-28T17:33:16.233Z,9.63
2018-11-28T17:35:47.153Z,10.23
2018-11-28T17:38:18.213Z,12.60
2018-11-28T17:40:49.992Z,13.27
2018-11-28T17:43:21.652Z,9.20
2018-11-28T17:45:52.594Z,9.30
2018-11-28T17:48:23.137Z,11.53
2018-11-28T17:50:53.736Z,15.90
2018-11-28T17:53:26.254Z,10.57
2018-11-28T17:55:59.032Z,13.10
2018-11-28T17:58:29.813Z,9.00
2018-11-28T18:01:00.672Z,9.67
2018-11-28T18:03:31.773Z,12.77
2018-11-28T18:06:03.472Z,13.43
2018-11-28T18:08:34.880Z,16.23
2018-11-28T18:11:11.929Z,13.50
2018-11-28T18:13:44.117Z,12.50
2018-11-28T18:16:14.973Z,14.20
2018-11-28T18:18:46.211Z,13.50
2018-11-28T18:21:16.911Z,12.80
2018-11-28T18:23:47.693Z,13.43
2018-11-28T18:26:18.533Z,12.20
2018-11-28T18:28:49.534Z,11.93
2018-11-28T18:31:20.955Z,12.30
2018-11-28T18:33:51.362Z,12.63
2018-11-28T18:36:22.673Z,10.03
2018-11-28T18:38:53.073Z,10.60
2018-11-28T18:41:23.933Z,12.03
2018-11-28T18:43:54.952Z,12.80
2018-11-28T18:46:26.190Z,13.47
2018-11-28T18:48:56.712Z,14.40
2018-11-28T18:51:27.574Z,12.87
2018-11-28T18:54:00.571Z,14.23
2018-11-28T18:56:30.995Z,15.80
2018-11-28T18:59:02.055Z,15.27
2018-11-28T19:01:32.752Z,13.37
2018-11-28T19:04:03.593Z,13.10
2018-11-28T19:06:33.922Z,12.93
2018-11-28T19:09:06.173Z,12.90
2018-11-28T19:11:36.353Z,13.80
2018-11-28T19:14:12.309Z,14.93
2018-11-28T19:16:38.428Z,12.77
2018-11-28T19:19:09.431Z,11.63
2018-11-28T19:21:40.753Z,15.07
2018-11-28T19:24:11.896Z,12.53
2018-11-28T19:26:42.334Z,12.90
2018-11-28T19:29:13.000Z,14.70
2018-11-28T19:31:43.858Z,12.00
2018-11-28T19:34:18.202Z,10.63
2018-11-28T19:36:46.211Z,9.83
2018-11-28T19:39:17.378Z,10.53
2018-11-28T19:41:48.138Z,10.73
2018-11-28T19:44:19.474Z,10.53
2018-11-28T19:46:50.192Z,10.63
2018-11-28T19:49:21.132Z,9.50
2018-11-28T19:51:52.272Z,9.17
2018-11-28T19:54:22.971Z,9.97
2018-11-28T19:56:55.092Z,9.60
2018-11-28T19:59:27.012Z,8.53
2018-11-28T20:01:58.352Z,11.87
2018-11-28T20:04:30.037Z,9.80
2018-11-28T20:07:01.552Z,10.83
2018-11-28T20:09:32.515Z,11.20
2018-11-28T20:12:04.134Z,9.60
2018-11-28T20:14:35.847Z,12.80
2018-11-28T20:17:06.971Z,11.37
2018-11-28T20:19:37.281Z,12.20
2018-11-28T20:22:07.352Z,10.07
2018-11-28T20:24:37.814Z,10.60
2018-11-28T20:27:08.294Z,11.67
2018-11-28T20:29:39.391Z,15.10
2018-11-28T20:32:10.212Z,12.07
2018-11-28T20:34:41.260Z,10.13
2018-11-28T20:37:11.734Z,8.67
2018-11-28T20:39:42.553Z,10.50
2018-11-28T20:42:13.151Z,11.60
2018-11-28T20:44:43.476Z,8.73
2018-11-28T20:47:14.473Z,8.73
2018-11-28T20:49:45.434Z,9.20
2018-11-28T20:52:16.112Z,8.83
2018-11-28T20:54:47.095Z,8.27
2018-11-28T20:57:17.921Z,8.57
2018-11-28T20:59:48.799Z,10.07
2018-11-28T21:02:19.892Z,10.97
2018-11-28T21:04:51.372Z,14.60
2018-11-28T21:07:21.940Z,15.90
2018-11-28T21:09:54.252Z,12.63
2018-11-28T21:12:25.152Z,10.53
2018-11-28T21:14:56.633Z,7.93
2018-11-28T21:17:27.084Z,7.97
2018-11-28T21:19:58.212Z,11.17
2018-11-28T21:22:29.392Z,10.47
2018-11-28T21:25:00.414Z,12.20
2018-11-28T21:27:32.454Z,12.80
2018-11-28T21:30:04.135Z,12.77
2018-11-28T21:32:34.995Z,10.57
2018-11-28T21:35:08.412Z,11.93
2018-11-28T21:37:38.847Z,12.80
2018-11-28T21:40:10.752Z,13.00
2018-11-28T21:42:41.832Z,13.67
2018-11-28T21:45:15.170Z,12.90
2018-11-28T21:47:45.876Z,12.77
2018-11-28T21:50:17.854Z,14.10
2018-11-28T21:52:48.833Z,12.27
2018-11-28T21:55:22.713Z,12.47
2018-11-28T21:57:53.681Z,11.47
2018-11-28T22:00:25.612Z,10.00
2018-11-28T22:02:56.592Z,12.50
2018-11-28T22:05:27.772Z,8.37
2018-11-28T22:07:58.652Z,9.73
2018-11-28T22:10:30.671Z,9.63
2018-11-28T22:13:01.953Z,9.13
2018-11-28T22:15:32.852Z,11.60
2018-11-28T22:18:04.413Z,12.20
2018-11-28T22:20:36.092Z,12.87
2018-11-28T22:23:07.253Z,11.90
2018-11-28T22:25:38.512Z,11.83
2018-11-28T22:28:09.852Z,10.83
2018-11-28T22:30:40.891Z,13.30
2018-11-28T22:33:12.253Z,9.90
2018-11-28T22:35:42.892Z,10.93
2018-11-28T22:38:13.751Z,8.43
2018-11-28T22:40:44.652Z,12.57
2018-11-28T22:43:15.855Z,9.97
2018-11-28T22:45:47.141Z,11.50
2018-11-28T22:48:18.193Z,10.93
2018-11-28T22:50:48.955Z,10.57
2018-11-28T22:53:20.531Z,11.23
2018-11-28T22:55:51.273Z,13.60
2018-11-28T22:58:22.052Z,12.17
2018-11-28T23:00:58.633Z,12.33
2018-11-28T23:03:29.532Z,9.97
2018-11-28T23:06:03.773Z,10.30
2018-11-28T23:08:38.353Z,8.30
2018-11-28T23:11:09.051Z,8.47
2018-11-28T23:13:39.724Z,6.70
2018-11-28T23:16:10.515Z,7.50
2018-11-28T23:18:41.982Z,8.07
2018-11-28T23:21:12.832Z,6.60
2018-11-28T23:23:43.876Z,11.27
2018-11-28T23:26:15.332Z,12.47
2018-11-28T23:28:46.192Z,11.30
2018-11-28T23:31:17.372Z,10.10
2018-11-28T23:33:48.112Z,9.60
2018-11-28T23:36:18.732Z,8.23
2018-11-28T23:38:49.632Z,7.67
2018-11-28T23:41:20.762Z,6.70
2018-11-28T23:43:51.651Z,8.30
2018-11-28T23:46:22.652Z,13.97
2018-11-28T23:48:53.732Z,11.33
2018-11-28T23:51:24.533Z,13.17
2018-11-28T23:53:56.212Z,15.33
2018-11-28T23:56:27.890Z,14.00
2018-11-28T23:58:59.391Z,14.87
